Time;durP1;ratioP1;P1;durP2;ratioP2;P2;SDS_P1;SDS_P2;PMS_P1;PMS_P2;Temp;Humidity;BMP_temperature;BMP_pressure;BME280_temperature;BME280_humidity;BME280_pressure;Samples;Min_cycle;Max_cycle;Signal;HPM_P1;HPM_P2
2021/01/11 00:00:56;;;;;;;54.15;20.67;;;;;;;-1.67;83.03;100648.91;5054646;28;20044;-71
2021/01/11 00:03:21;;;;;;;53.38;21.67;;;;;;;-1.60;83.21;100672.41;5036740;28;20037;-70
2021/01/11 00:05:47;;;;;;;53.88;21.13;;;;;;;-1.64;83.16;100659.34;5054237;28;20108;-70
2021/01/11 00:08:12;;;;;;;50.92;20.30;;;;;;;-1.59;82.96;100668.06;5036937;28;20029;-71
2021/01/11 00:10:38;;;;;;;48.75;21.13;;;;;;;-1.58;82.82;100665.44;5054247;28;20055;-69
2021/01/11 00:13:03;;;;;;;49.42;20.33;;;;;;;-1.55;82.65;100661.91;5054935;28;20092;-70
2021/01/11 00:15:29;;;;;;;50.25;20.40;;;;;;;-1.58;82.77;100664.56;5036894;28;20040;-71
2021/01/11 00:17:54;;;;;;;48.70;20.15;;;;;;;-1.59;82.72;100662.81;5019373;28;20132;-71
2021/01/11 00:20:20;;;;;;;48.88;20.13;;;;;;;-1.59;82.62;100668.94;5054274;28;20040;-71
2021/01/11 00:22:45;;;;;;;50.08;20.27;;;;;;;-2.02;82.54;100595.00;5053959;28;20036;-71
2021/01/11 00:25:12;;;;;;;45.90;19.73;;;;;;;-1.77;83.44;100659.41;5054450;28;20060;-71
2021/01/11 00:27:38;;;;;;;46.45;19.88;;;;;;;-1.73;83.39;100665.50;5054039;28;20040;-71
2021/01/11 00:30:06;;;;;;;52.30;21.67;;;;;;;-1.75;82.90;100670.72;5054094;28;20037;-72
2021/01/11 00:32:36;;;;;;;48.63;19.85;;;;;;;-1.96;83.37;100630.69;5053913;28;20029;-72
2021/01/11 00:35:03;;;;;;;50.78;20.55;;;;;;;-1.70;83.03;100672.47;5053698;28;20059;-72
2021/01/11 00:37:28;;;;;;;53.03;22.05;;;;;;;-1.71;83.36;100665.50;5036219;28;20040;-71
2021/01/11 00:39:54;;;;;;;51.15;20.70;;;;;;;-1.82;83.74;100666.41;5019276;28;20040;-71
2021/01/11 00:42:19;;;;;;;52.63;21.48;;;;;;;-2.14;83.93;100621.16;5036198;28;20561;-73
2021/01/11 00:44:45;;;;;;;49.67;21.33;;;;;;;-2.29;84.11;100609.03;5053525;28;20116;-70
2021/01/11 00:47:10;;;;;;;51.47;21.63;;;;;;;-1.92;84.21;100667.31;5053931;28;20032;-72
2021/01/11 00:49:36;;;;;;;50.15;20.92;;;;;;;-1.95;84.08;100654.22;5053688;28;20062;-71
2021/01/11 00:52:03;;;;;;;46.47;20.92;;;;;;;-1.95;84.55;100675.13;5053364;28;20037;-71
2021/01/11 00:54:28;;;;;;;50.15;21.48;;;;;;;-2.27;84.83;100632.53;5053636;28;20037;-71
2021/01/11 00:56:55;;;;;;;47.05;20.30;;;;;;;-1.95;85.26;100675.13;5053022;28;20067;-71
2021/01/11 00:59:20;;;;;;;50.40;21.95;;;;;;;-2.00;84.90;100676.91;5053578;28;20040;-72
2021/01/11 01:01:57;;;;;;;46.55;19.70;;;;;;;-2.25;85.13;100636.00;5053236;28;20032;-70
2021/01/11 01:04:22;;;;;;;51.00;21.13;;;;;;;-2.07;84.92;100670.81;5053789;28;20075;-72
2021/01/11 01:06:48;;;;;;;55.78;21.88;;;;;;;-2.03;85.21;100671.66;5035310;28;20471;-71
2021/01/11 01:09:14;;;;;;;50.25;22.73;;;;;;;-2.33;85.02;100625.56;5053527;28;20464;-71
2021/01/11 01:11:40;;;;;;;50.42;21.25;;;;;;;-2.08;85.09;100657.75;5018710;28;20032;-80
2021/01/11 01:14:06;;;;;;;46.53;20.80;;;;;;;-2.06;84.90;100662.09;5053572;28;20040;-69
2021/01/11 01:16:32;;;;;;;50.30;21.20;;;;;;;-2.25;85.26;100649.06;5002623;28;20041;-71
2021/01/11 01:18:58;;;;;;;47.75;21.27;;;;;;;-2.50;85.44;100604.72;5053077;28;20029;-72
2021/01/11 01:21:24;;;;;;;48.42;19.55;;;;;;;-2.32;85.78;100630.81;5053291;28;20033;-72
2021/01/11 01:23:49;;;;;;;49.50;20.77;;;;;;;-2.29;85.60;100652.56;5035310;28;20378;-72
2021/01/11 01:26:15;;;;;;;52.65;20.92;;;;;;;-2.34;85.80;100656.03;5035419;28;20040;-73
2021/01/11 01:28:41;;;;;;;49.90;21.17;;;;;;;-2.33;86.15;100662.16;5034192;28;20041;-73
2021/01/11 01:31:06;;;;;;;50.67;20.60;;;;;;;-2.37;85.93;100661.28;5035289;28;20033;-70
2021/01/11 01:33:32;;;;;;;51.20;21.77;;;;;;;-2.31;86.26;100660.44;5035308;28;20079;-71
2021/01/11 01:35:58;;;;;;;50.72;22.15;;;;;;;-2.40;86.07;100656.06;5052828;28;20084;-72
2021/01/11 01:38:23;;;;;;;49.38;19.75;;;;;;;-2.58;86.26;100616.91;5052966;28;20036;-70
2021/01/11 01:40:49;;;;;;;50.20;21.73;;;;;;;-2.36;86.21;100657.81;5052664;28;20485;-70
2021/01/11 01:43:14;;;;;;;49.10;21.00;;;;;;;-2.44;86.43;100653.44;5035332;28;20033;-71
2021/01/11 01:45:40;;;;;;;53.63;21.20;;;;;;;-2.46;86.47;100643.00;5034948;28;20029;-71
2021/01/11 01:48:07;;;;;;;52.25;21.13;;;;;;;-2.46;87.06;100649.97;5034916;28;20497;-71
2021/01/11 01:50:34;;;;;;;52.47;20.42;;;;;;;-2.54;86.47;100636.91;5035142;28;20033;-70
2021/01/11 01:53:00;;;;;;;52.75;21.30;;;;;;;-2.56;86.45;100633.44;5034729;28;20478;-70
2021/01/11 01:55:25;;;;;;;48.20;21.10;;;;;;;-2.49;86.71;100645.63;5053055;28;20052;-71
2021/01/11 01:57:55;;;;;;;47.20;20.63;;;;;;;-2.58;86.57;100624.75;5052430;28;20120;-72
2021/01/11 02:00:22;;;;;;;50.80;22.00;;;;;;;-2.62;86.96;100628.22;5052619;28;20485;-71
2021/01/11 02:02:47;;;;;;;50.10;20.77;;;;;;;-2.51;86.76;100641.25;5052734;28;20140;-72
2021/01/11 02:05:13;;;;;;;49.58;21.15;;;;;;;-2.46;86.44;100639.53;5018694;28;20064;-71
2021/01/11 02:07:50;;;;;;;51.13;22.15;;;;;;;-2.57;86.82;100644.75;5018925;28;20033;-71
2021/01/11 02:10:46;;;;;;;48.70;21.20;;;;;;;-2.56;87.19;100643.03;5053007;28;20040;-72
2021/01/11 02:13:20;;;;;;;53.97;21.23;;;;;;;-2.57;86.95;100641.28;5052871;28;20386;-71
2021/01/11 02:15:46;;;;;;;53.50;21.33;;;;;;;-2.60;87.18;100635.19;5052413;28;20390;-72
2021/01/11 02:18:20;;;;;;;49.83;21.33;;;;;;;-2.61;86.92;100635.16;5052774;28;20033;-72
2021/01/11 02:21:08;;;;;;;49.03;21.20;;;;;;;-2.65;87.08;100629.09;5052298;28;20040;-72
2021/01/11 02:24:02;;;;;;;52.05;21.27;;;;;;;-2.64;87.18;100629.97;5035003;28;20036;-70
2021/01/11 02:26:54;;;;;;;52.17;21.45;;;;;;;-2.72;87.04;100621.25;4981053;28;20102;-71
2021/01/11 02:29:59;;;;;;;50.33;21.30;;;;;;;-2.70;87.50;100624.72;5052379;28;20079;-71
2021/01/11 02:32:26;;;;;;;50.53;20.52;;;;;;;-2.69;87.26;100622.16;5052505;28;20099;-71
2021/01/11 02:34:54;;;;;;;52.55;20.20;;;;;;;-2.72;87.25;100629.09;5051888;28;20052;-71
2021/01/11 02:37:20;;;;;;;47.35;20.52;;;;;;;-2.73;86.92;100617.78;5017823;28;20410;-71
2021/01/11 02:39:46;;;;;;;48.05;20.90;;;;;;;-2.73;87.13;100625.59;5034105;28;20033;-77
2021/01/11 02:42:11;;;;;;;55.22;22.13;;;;;;;-2.99;87.01;100576.03;5056357;28;20100;-71
2021/01/11 02:44:37;;;;;;;51.15;21.55;;;;;;;-2.82;86.99;100603.84;5056020;28;20116;-71
2021/01/11 02:47:02;;;;;;;52.80;21.13;;;;;;;-2.71;86.82;100613.41;5037998;28;20032;-71
2021/01/11 02:49:44;;;;;;;49.42;19.52;;;;;;;-2.77;87.06;100607.34;5056012;28;20037;-71
2021/01/11 02:52:34;;;;;;;48.85;20.13;;;;;;;-2.75;87.09;100611.69;5055831;28;20044;-71
2021/01/11 02:55:11;;;;;;;50.65;20.85;;;;;;;-2.78;86.67;100600.38;5056039;28;20030;-72
2021/01/11 02:58:11;;;;;;;50.78;20.98;;;;;;;-2.73;86.84;100614.28;5056014;28;20087;-72
2021/01/11 03:00:41;;;;;;;46.28;20.40;;;;;;;-2.75;86.58;100616.03;5014821;28;20044;-74
2021/01/11 03:03:11;;;;;;;50.55;19.73;;;;;;;-2.88;86.37;100589.94;5055847;28;20032;-75
2021/01/11 03:05:37;;;;;;;55.80;21.13;;;;;;;-2.88;86.89;100595.16;5055852;28;20390;-75
2021/01/11 03:08:02;;;;;;;52.58;21.08;;;;;;;-2.92;86.58;100582.09;5037827;28;20043;-75
2021/01/11 03:10:28;;;;;;;47.50;20.27;;;;;;;-2.71;86.42;100623.00;5055633;28;20409;-72
2021/01/11 03:12:53;;;;;;;51.90;20.58;;;;;;;-2.75;86.49;100626.50;5037449;28;20117;-72
2021/01/11 03:15:19;;;;;;;49.80;20.50;;;;;;;-2.85;86.65;100609.09;5055498;28;20116;-72
2021/01/11 03:17:45;;;;;;;51.28;20.88;;;;;;;-2.78;86.81;100631.72;5021261;28;20033;-73
2021/01/11 03:20:12;;;;;;;43.72;19.23;;;;;;;-2.82;87.19;100619.53;5055158;28;20033;-72
2021/01/11 03:22:37;;;;;;;48.90;21.02;;;;;;;-3.05;86.81;100575.16;5037805;28;20033;-72
2021/01/11 03:25:04;;;;;;;50.28;20.35;;;;;;;-2.80;86.88;100621.25;5055079;28;20488;-72
2021/01/11 03:27:30;;;;;;;50.05;19.75;;;;;;;-2.79;87.20;100622.16;5037628;28;20386;-73
2021/01/11 03:29:55;;;;;;;50.90;21.30;;;;;;;-2.83;87.48;100615.16;5037392;28;20048;-72
2021/01/11 03:32:21;;;;;;;48.97;21.27;;;;;;;-2.84;87.31;100616.03;5037943;28;20139;-71
2021/01/11 03:34:47;;;;;;;50.05;20.63;;;;;;;-3.08;86.71;100572.56;5020918;28;20029;-71
2021/01/11 03:37:13;;;;;;;46.85;19.88;;;;;;;-2.88;87.06;100604.75;5037176;28;20048;-71
2021/01/11 03:39:38;;;;;;;45.13;20.38;;;;;;;-2.85;87.16;100614.31;5055116;28;20041;-71
2021/01/11 03:42:04;;;;;;;49.72;20.83;;;;;;;-3.03;87.42;100605.59;5036974;28;20032;-71
2021/01/11 03:44:29;;;;;;;45.75;19.58;;;;;;;-3.18;87.69;100571.69;5055005;28;20132;-70
2021/01/11 03:46:55;;;;;;;47.45;20.33;;;;;;;-2.92;87.50;100622.13;5054863;28;20033;-71
2021/01/11 03:49:22;;;;;;;48.38;20.17;;;;;;;-2.95;87.62;100609.09;5037398;28;20041;-70
2021/01/11 03:51:47;;;;;;;49.45;20.30;;;;;;;-3.06;88.11;100609.94;5036383;28;20542;-71
2021/01/11 03:54:12;;;;;;;50.58;20.27;;;;;;;-2.98;88.22;100618.66;5020105;28;20124;-71
2021/01/11 03:56:38;;;;;;;47.80;20.02;;;;;;;-3.03;88.11;100616.03;5036660;28;20036;-71
2021/01/11 03:59:04;;;;;;;49.25;20.95;;;;;;;-3.11;88.35;100622.97;5054201;28;20145;-71
2021/01/11 04:01:29;;;;;;;47.45;20.42;;;;;;;-3.06;88.62;100625.59;5037157;28;20087;-71
2021/01/11 04:03:55;;;;;;;48.78;20.25;;;;;;;-3.15;88.30;100589.94;5054483;28;20060;-71
2021/01/11 04:06:21;;;;;;;45.72;19.90;;;;;;;-3.26;88.02;100570.78;5037004;28;20115;-71
2021/01/11 04:08:47;;;;;;;48.88;19.75;;;;;;;-2.94;87.84;100613.44;5036823;28;20059;-71
2021/01/11 04:11:12;;;;;;;48.05;19.77;;;;;;;-2.86;87.71;100618.66;5036293;28;20528;-71
2021/01/11 04:13:38;;;;;;;41.88;20.08;;;;;;;-2.97;87.90;100612.56;5020041;28;20033;-71
2021/01/11 04:16:04;;;;;;;50.72;20.73;;;;;;;-3.02;87.80;100623.00;5035983;28;20045;-71
2021/01/11 04:18:30;;;;;;;48.95;20.75;;;;;;;-3.08;87.75;100611.69;5054461;28;20033;-71
2021/01/11 04:20:55;;;;;;;52.47;20.08;;;;;;;-3.01;88.32;100635.16;5053917;28;20033;-72
2021/01/11 04:23:21;;;;;;;48.63;20.88;;;;;;;-3.30;88.25;100585.56;5054050;28;20120;-72
2021/01/11 04:25:46;;;;;;;50.58;20.88;;;;;;;-3.08;88.43;100643.00;5054185;28;20040;-72
2021/01/11 04:28:12;;;;;;;52.70;20.50;;;;;;;-3.07;88.66;100631.69;5019552;28;20398;-72
2021/01/11 04:30:37;;;;;;;55.28;21.55;;;;;;;-3.15;89.21;100633.44;5019942;28;20537;-71
2021/01/11 04:33:03;;;;;;;45.10;20.00;;;;;;;-3.16;89.13;100637.78;5036485;28;20128;-72
2021/01/11 04:35:29;;;;;;;48.28;21.05;;;;;;;-3.22;88.32;100580.34;5054171;28;20056;-72
2021/01/11 04:37:54;;;;;;;46.78;20.17;;;;;;;-3.02;88.32;100627.34;5036236;28;20067;-72
2021/01/11 04:40:21;;;;;;;49.53;19.95;;;;;;;-3.06;87.99;100623.00;5019799;28;20033;-71
2021/01/11 04:42:46;;;;;;;50.72;20.50;;;;;;;-3.07;88.53;100629.09;5019757;28;20025;-71
2021/01/11 04:45:12;;;;;;;49.83;21.73;;;;;;;-3.29;88.92;100609.91;5053546;28;20029;-71
2021/01/11 04:47:38;;;;;;;54.08;20.88;;;;;;;-3.03;88.30;100629.09;5019708;28;20066;-71
2021/01/11 04:50:04;;;;;;;50.25;20.45;;;;;;;-2.92;87.91;100629.97;5035871;28;20044;-71
2021/01/11 04:52:31;;;;;;;50.28;20.30;;;;;;;-2.92;87.65;100631.69;5019785;28;20037;-70
2021/01/11 04:55:01;;;;;;;43.38;18.48;;;;;;;-3.01;87.75;100622.13;5035689;28;20467;-72
2021/01/11 04:57:34;;;;;;;51.05;20.65;;;;;;;-3.04;88.10;100629.97;5019358;28;20036;-71
2021/01/11 05:00:10;;;;;;;51.17;20.45;;;;;;;-2.99;87.59;100636.06;5053336;28;20036;-71
2021/01/11 05:02:43;;;;;;;50.67;21.00;;;;;;;-3.00;88.01;100634.28;5035929;28;20532;-72
2021/01/11 05:05:10;;;;;;;48.60;20.08;;;;;;;-3.01;88.23;100635.16;5035719;28;20081;-72
2021/01/11 05:07:35;;;;;;;49.55;20.70;;;;;;;-3.30;87.92;100580.34;5018978;28;20131;-72
2021/01/11 05:10:01;;;;;;;49.97;21.65;;;;;;;-3.37;87.99;100590.78;5053105;28;20167;-72
2021/01/11 05:12:27;;;;;;;51.22;21.77;;;;;;;-3.24;88.33;100616.00;5053704;28;20032;-72
2021/01/11 05:15:22;;;;;;;48.35;21.60;;;;;;;-3.17;88.84;100636.03;5035854;28;20036;-72
2021/01/11 05:17:48;;;;;;;52.15;20.95;;;;;;;-3.44;88.55;100583.81;5014904;28;20091;-71
2021/01/11 05:20:19;;;;;;;58.78;21.35;;;;;;;-3.28;88.94;100632.50;5035532;28;20025;-71
2021/01/11 05:22:47;;;;;;;54.75;21.75;;;;;;;-3.17;88.72;100628.22;5035469;28;20029;-71
2021/01/11 05:25:18;;;;;;;48.03;20.02;;;;;;;-3.30;88.61;100610.78;5019443;28;20036;-72
2021/01/11 05:27:46;;;;;;;53.78;22.10;;;;;;;-3.22;88.78;100627.31;5053961;28;20040;-71
2021/01/11 05:30:31;;;;;;;52.35;21.05;;;;;;;-3.18;88.83;100635.16;5002699;28;20044;-72
2021/01/11 05:32:57;;;;;;;49.92;20.50;;;;;;;-3.53;89.13;100582.91;5052892;28;20025;-74
2021/01/11 05:35:25;;;;;;;52.35;21.45;;;;;;;-3.41;89.49;100613.38;5053039;28;20041;-70
2021/01/11 05:37:58;;;;;;;45.67;21.20;;;;;;;-3.28;89.30;100633.41;5053299;28;20446;-70
2021/01/11 05:40:26;;;;;;;53.33;21.90;;;;;;;-3.31;88.83;100620.34;5053019;28;20094;-71
2021/01/11 05:43:00;;;;;;;50.25;21.08;;;;;;;-3.26;89.14;100644.72;5034904;28;20139;-71
2021/01/11 05:45:31;;;;;;;57.10;20.88;;;;;;;-3.42;89.13;100631.63;5035148;28;20028;-71
2021/01/11 05:48:07;;;;;;;50.47;21.90;;;;;;;-3.62;89.65;100624.63;5035050;28;20033;-71
2021/01/11 05:50:47;;;;;;;54.70;21.08;;;;;;;-3.32;89.57;100636.00;5052831;28;20064;-70
2021/01/11 05:53:24;;;;;;;50.15;20.35;;;;;;;-3.37;89.24;100640.34;5052524;28;20108;-70
2021/01/11 05:55:55;;;;;;;51.25;21.13;;;;;;;-3.31;89.59;100645.56;5035348;28;20099;-70
2021/01/11 05:58:23;;;;;;;54.25;20.95;;;;;;;-3.39;89.41;100652.50;5052389;28;20037;-69
2021/01/11 06:00:49;;;;;;;52.20;20.98;;;;;;;-3.47;89.46;100640.31;5052761;28;20433;-68
2021/01/11 06:03:16;;;;;;;49.63;21.08;;;;;;;-3.35;89.31;100652.50;5034582;28;20033;-70
2021/01/11 06:05:42;;;;;;;48.03;21.70;;;;;;;-3.37;89.73;100650.78;5052560;28;20037;-70
2021/01/11 06:08:10;;;;;;;47.40;20.95;;;;;;;-3.43;89.38;100645.53;5017946;28;20033;-70
2021/01/11 06:10:36;;;;;;;49.75;20.38;;;;;;;-3.44;90.13;100654.22;5052806;28;20029;-69
2021/01/11 06:13:07;;;;;;;50.83;20.73;;;;;;;-3.56;89.73;100644.63;5034844;28;20040;-71
2021/01/11 06:15:33;;;;;;;50.30;20.73;;;;;;;-3.46;89.93;100657.72;5036563;28;20037;-71
2021/01/11 06:17:59;;;;;;;47.83;19.80;;;;;;;-3.44;90.10;100659.44;5039045;28;20033;-71
2021/01/11 06:20:27;;;;;;;48.60;20.63;;;;;;;-3.44;90.03;100668.13;5056432;28;20052;-70
2021/01/11 06:22:54;;;;;;;54.60;21.17;;;;;;;-3.43;90.06;100669.00;5056468;28;20037;-72
2021/01/11 06:25:26;;;;;;;52.15;21.67;;;;;;;-3.42;89.62;100668.13;5038358;28;20045;-69
2021/01/11 06:27:55;;;;;;;50.17;21.25;;;;;;;-3.41;90.02;100669.88;5056420;28;20171;-70
2021/01/11 06:30:41;;;;;;;51.97;20.63;;;;;;;-3.49;90.02;100656.81;5038209;28;20148;-69
2021/01/11 06:33:24;;;;;;;52.55;21.10;;;;;;;-3.50;89.63;100666.38;5056118;28;20044;-69
2021/01/11 06:35:52;;;;;;;49.80;20.48;;;;;;;-3.51;90.21;100674.19;5056315;28;20490;-70
2021/01/11 06:38:29;;;;;;;52.10;21.40;;;;;;;-3.52;89.91;100675.94;5056507;28;20161;-71
2021/01/11 06:41:12;;;;;;;52.13;20.45;;;;;;;-3.58;90.62;100655.03;5056277;28;20036;-68
2021/01/11 06:43:40;;;;;;;53.70;21.63;;;;;;;-3.48;90.30;100675.06;5038580;28;20123;-68
2021/01/11 06:46:06;;;;;;;52.33;21.80;;;;;;;-3.49;90.07;100667.22;5038280;28;20033;-67
2021/01/11 06:48:33;;;;;;;48.80;20.92;;;;;;;-3.50;89.90;100666.38;5056244;28;20056;-68
2021/01/11 06:51:09;;;;;;;50.90;20.15;;;;;;;-3.78;89.98;100628.03;5022111;28;20502;-67
2021/01/11 06:53:35;;;;;;;51.25;21.45;;;;;;;-3.54;90.22;100680.28;5056084;28;20075;-66
2021/01/11 06:56:11;;;;;;;52.42;21.92;;;;;;;-3.51;90.01;100679.41;5055770;28;20032;-67
2021/01/11 06:58:40;;;;;;;49.85;20.52;;;;;;;-3.59;90.00;100661.13;5056134;28;20390;-67
2021/01/11 07:01:11;;;;;;;44.97;20.17;;;;;;;-3.46;89.95;100673.34;5055841;28;20091;-68
2021/01/11 07:03:49;;;;;;;50.83;21.40;;;;;;;-3.50;89.54;100676.78;5056067;28;20037;-67
2021/01/11 07:06:34;;;;;;;58.05;22.35;;;;;;;-3.45;89.67;100676.84;5037867;28;20413;-67
2021/01/11 07:09:20;;;;;;;53.38;21.27;;;;;;;-3.60;89.41;100654.16;5056028;28;20029;-66
2021/01/11 07:11:48;;;;;;;54.70;20.75;;;;;;;-3.40;89.25;100687.25;5055774;28;20055;-68
2021/01/11 07:14:15;;;;;;;50.58;20.95;;;;;;;-3.52;88.98;100660.28;5055414;28;20397;-65
2021/01/11 07:16:46;;;;;;;52.88;21.27;;;;;;;-3.40;89.27;100682.06;5021803;28;20048;-68
2021/01/11 07:19:13;;;;;;;44.17;18.50;;;;;;;-3.66;88.65;100627.22;5055239;28;20481;-67
2021/01/11 07:21:38;;;;;;;46.42;20.33;;;;;;;-3.35;88.10;100680.34;5055552;28;20037;-66
2021/01/11 07:24:05;;;;;;;48.55;20.83;;;;;;;-3.46;88.27;100657.72;5055484;28;20040;-66
2021/01/11 07:26:33;;;;;;;51.50;20.55;;;;;;;-3.58;87.96;100644.59;5054787;28;20040;-68
2021/01/11 07:29:04;;;;;;;47.40;20.30;;;;;;;-3.39;87.99;100674.22;5037777;28;20378;-67
2021/01/11 07:31:43;;;;;;;44.15;18.40;;;;;;;-3.35;88.02;100675.13;5055387;28;20032;-66
2021/01/11 07:34:14;;;;;;;48.08;19.23;;;;;;;-3.37;87.75;100661.22;5055347;28;20029;-67
2021/01/11 07:36:50;;;;;;;50.70;19.92;;;;;;;-3.53;87.73;100627.25;5069876;28;20182;-66
2021/01/11 07:39:26;;;;;;;48.80;19.98;;;;;;;-3.30;87.71;100666.44;5073701;28;20041;-66
2021/01/11 07:41:55;;;;;;;49.55;19.65;;;;;;;-3.21;87.36;100689.94;5075073;28;20040;-65
2021/01/11 07:44:31;;;;;;;46.78;18.67;;;;;;;-3.44;87.02;100646.41;5075059;28;20040;-66
2021/01/11 07:47:00;;;;;;;44.30;17.52;;;;;;;-3.32;86.86;100654.25;5074078;28;20082;-65
2021/01/11 07:49:31;;;;;;;50.08;19.13;;;;;;;-3.24;86.83;100673.41;5073681;28;20039;-66
2021/01/11 07:52:07;;;;;;;47.42;19.27;;;;;;;-3.09;86.92;100693.44;5075013;28;20029;-66
2021/01/11 07:54:33;;;;;;;43.35;18.05;;;;;;;-3.09;86.80;100694.31;5074611;28;20071;-65
2021/01/11 07:56:59;;;;;;;44.05;18.90;;;;;;;-3.07;86.70;100697.81;5075214;28;20047;-66
2021/01/11 07:59:25;;;;;;;54.15;20.15;;;;;;;-3.03;86.56;100702.16;5074825;28;20033;-65
2021/01/11 08:01:51;;;;;;;48.72;19.92;;;;;;;-3.11;86.35;100680.38;5074819;28;20036;-66
2021/01/11 08:04:18;;;;;;;49.53;20.88;;;;;;;-3.10;86.12;100682.13;5074544;28;20113;-67
2021/01/11 08:06:48;;;;;;;45.20;19.67;;;;;;;-2.95;86.08;100707.41;5073545;28;20035;-65
2021/01/11 08:09:15;;;;;;;47.95;19.75;;;;;;;-2.91;85.53;100699.56;5073216;28;20082;-66
2021/01/11 08:11:41;;;;;;;45.42;20.23;;;;;;;-2.97;85.65;100694.34;5074717;28;20032;-67
2021/01/11 08:14:08;;;;;;;46.10;18.92;;;;;;;-2.98;84.81;100692.63;5074473;28;20037;-66
2021/01/11 08:16:35;;;;;;;45.20;18.73;;;;;;;-2.83;85.26;100696.09;5056477;28;20032;-66
2021/01/11 08:19:11;;;;;;;52.38;20.95;;;;;;;-2.70;84.85;100708.28;5073221;28;20078;-66
2021/01/11 08:21:39;;;;;;;47.83;20.55;;;;;;;-2.90;84.54;100669.97;5074405;28;20056;-66
2021/01/11 08:24:09;;;;;;;44.85;19.48;;;;;;;-2.54;84.46;100717.88;5074661;28;20048;-65
2021/01/11 08:26:44;;;;;;;42.58;19.98;;;;;;;-2.48;84.55;100720.50;5074071;28;20109;-66
2021/01/11 08:29:10;;;;;;;47.00;19.75;;;;;;;-2.51;84.26;100699.63;5074847;28;20086;-66
2021/01/11 08:31:37;;;;;;;46.50;20.08;;;;;;;-2.39;83.49;100720.53;5072926;28;20045;-66
2021/01/11 08:34:04;;;;;;;42.88;19.38;;;;;;;-2.28;82.86;100722.25;5074116;28;20121;-66
2021/01/11 08:36:30;;;;;;;47.72;20.17;;;;;;;-2.18;81.56;100727.47;5057106;28;20060;-66
2021/01/11 08:39:05;;;;;;;44.45;18.80;;;;;;;-2.13;81.50;100738.78;5035679;28;20029;-65
2021/01/11 08:41:41;;;;;;;36.83;17.45;;;;;;;-2.03;80.60;100729.19;5054011;28;20135;-65
2021/01/11 08:44:06;;;;;;;43.15;19.25;;;;;;;-1.98;80.60;100731.81;5054199;28;20025;-65
2021/01/11 08:46:51;;;;;;;42.55;18.60;;;;;;;-1.91;80.39;100733.53;5053623;28;20032;-64
2021/01/11 08:49:17;;;;;;;46.85;18.70;;;;;;;-1.95;80.19;100721.34;5053876;28;20033;-67
2021/01/11 08:51:43;;;;;;;38.92;16.98;;;;;;;-1.80;79.43;100737.88;5054028;28;20045;-64
2021/01/11 08:54:09;;;;;;;36.75;16.58;;;;;;;-1.73;78.63;100729.16;5035997;28;20036;-65
2021/01/11 08:56:35;;;;;;;40.30;18.85;;;;;;;-1.97;79.56;100683.88;5053899;28;20037;-67
2021/01/11 08:59:01;;;;;;;41.85;19.08;;;;;;;-1.65;78.58;100733.47;5053836;28;20028;-65
2021/01/11 09:01:34;;;;;;;40.35;18.15;;;;;;;-1.62;78.41;100738.72;5053678;28;20037;-66
2021/01/11 09:03:59;;;;;;;38.70;15.68;;;;;;;-1.56;78.01;100736.91;5053862;28;20025;-65
2021/01/11 09:06:41;;;;;;;38.13;17.45;;;;;;;-1.61;77.44;100743.94;5035430;28;20040;-66
2021/01/11 09:09:15;;;;;;;39.20;17.08;;;;;;;-1.61;77.59;100748.28;5053489;28;20054;-65
2021/01/11 09:11:42;;;;;;;39.50;16.65;;;;;;;-1.61;77.48;100751.78;5053591;28;20029;-66
2021/01/11 09:14:12;;;;;;;41.30;17.08;;;;;;;-1.74;77.57;100727.41;5053404;28;20033;-65
2021/01/11 09:16:38;;;;;;;37.65;16.10;;;;;;;-1.65;77.86;100752.66;5035345;28;20533;-65
2021/01/11 09:19:24;;;;;;;38.30;17.70;;;;;;;-1.70;78.42;100757.03;5053475;28;20439;-66
2021/01/11 09:22:00;;;;;;;37.97;17.60;;;;;;;-1.70;77.87;100743.09;5035074;28;20049;-64
2021/01/11 09:24:25;;;;;;;34.35;16.95;;;;;;;-1.80;78.30;100732.66;5035340;28;20458;-66
2021/01/11 09:26:52;;;;;;;37.40;17.17;;;;;;;-1.69;77.80;100747.44;5053714;28;20036;-65
2021/01/11 09:29:18;;;;;;;39.53;16.92;;;;;;;-1.69;78.07;100739.59;5019316;28;20103;-67
2021/01/11 09:31:43;;;;;;;35.25;16.17;;;;;;;-1.67;78.16;100743.06;5035369;28;20029;-67
2021/01/11 09:34:09;;;;;;;41.22;17.48;;;;;;;-1.84;77.65;100709.97;5053374;28;20036;-66
2021/01/11 09:36:36;;;;;;;41.67;19.55;;;;;;;-2.01;78.00;100690.84;5066490;28;20053;-65
2021/01/11 09:39:04;;;;;;;39.08;18.15;;;;;;;-1.71;78.32;100733.50;5073342;28;20039;-65
2021/01/11 09:41:30;;;;;;;39.33;17.83;;;;;;;-1.78;77.95;100732.63;5072825;28;20034;-66
2021/01/11 09:43:55;;;;;;;37.85;16.48;;;;;;;-1.45;76.42;100743.03;5072104;28;20486;-66
2021/01/11 09:46:20;;;;;;;34.95;17.23;;;;;;;-1.67;76.04;100706.44;5071650;28;20037;-67
2021/01/11 09:48:46;;;;;;;38.65;17.15;;;;;;;-1.35;76.14;100737.72;5073002;28;20032;-66
2021/01/11 09:51:11;;;;;;;34.80;16.38;;;;;;;-1.44;74.83;100741.28;5071153;28;20029;-65
2021/01/11 09:53:37;;;;;;;39.33;15.15;;;;;;;-1.34;74.65;100722.03;5072782;28;20116;-65
2021/01/11 09:56:03;;;;;;;35.60;15.30;;;;;;;-1.21;73.94;100739.41;5072852;28;20037;-65
2021/01/11 09:58:28;;;;;;;38.92;15.90;;;;;;;-1.18;73.80;100726.31;5072690;28;20029;-67
2021/01/11 10:00:54;;;;;;;35.97;15.60;;;;;;;-1.23;72.72;100699.28;5071922;28;20432;-66
2021/01/11 10:03:21;;;;;;;32.42;15.05;;;;;;;-0.85;72.12;100734.88;5072833;28;20025;-70
2021/01/11 10:05:55;;;;;;;34.00;15.38;;;;;;;-1.00;71.27;100690.44;5072742;28;20029;-65
2021/01/11 10:08:20;;;;;;;;;;;;;;;-0.77;69.96;100725.22;5073358;28;20039;-67
2021/01/11 10:10:45;;;;;;;29.47;13.53;;;;;;;-0.93;69.81;100689.53;5072867;28;19912;-66
2021/01/11 10:13:11;;;;;;;31.10;14.70;;;;;;;-0.85;70.43;100694.72;5072883;28;20333;-65
2021/01/11 10:15:36;;;;;;;33.22;14.82;;;;;;;-0.61;70.42;100737.31;5072511;28;20028;-65
2021/01/11 10:18:02;;;;;;;31.58;15.38;;;;;;;-0.61;70.89;100731.22;5072746;28;20545;-67
2021/01/11 10:20:27;;;;;;;34.40;15.15;;;;;;;-0.61;70.39;100718.97;5072359;28;20024;-66
2021/01/11 10:22:52;;;;;;;34.17;15.77;;;;;;;-0.84;70.68;100676.38;5071596;28;20075;-65
2021/01/11 10:25:18;;;;;;;32.65;16.50;;;;;;;-0.51;70.62;100716.28;5072646;28;20044;-66
2021/01/11 10:27:44;;;;;;;33.63;14.80;;;;;;;-0.42;70.00;100721.47;5072444;28;20044;-66
2021/01/11 10:30:09;;;;;;;37.72;15.55;;;;;;;-0.40;70.05;100717.06;5072685;28;20494;-66
2021/01/11 10:32:35;;;;;;;41.33;17.85;;;;;;;-0.39;70.12;100716.19;5054736;28;20386;-66
2021/01/11 10:35:00;;;;;;;38.30;16.60;;;;;;;-0.39;69.86;100705.69;5067896;28;20407;-67
2021/01/11 10:37:26;;;;;;;35.53;17.42;;;;;;;-0.51;70.14;100690.94;5052476;28;20033;-66
2021/01/11 10:39:52;;;;;;;35.78;17.15;;;;;;;-0.47;70.39;100702.31;5052615;28;20126;-66
2021/01/11 10:42:17;;;;;;;36.13;17.52;;;;;;;-0.47;70.98;100708.41;5034812;28;20546;-65
2021/01/11 10:44:43;;;;;;;40.08;18.60;;;;;;;-0.40;70.63;100698.72;5017962;28;20029;-67
2021/01/11 10:47:08;;;;;;;39.30;18.00;;;;;;;-0.32;70.89;100712.63;5052357;28;20159;-66
2021/01/11 10:49:34;;;;;;;35.03;17.15;;;;;;;-0.28;70.26;100714.38;5051994;28;20397;-66
2021/01/11 10:51:59;;;;;;;39.30;17.08;;;;;;;-0.39;70.24;100684.72;5052526;28;20119;-66
2021/01/11 10:54:25;;;;;;;41.58;17.38;;;;;;;-0.43;70.39;100673.41;5018251;28;20033;-65
2021/01/11 10:56:52;;;;;;;38.03;17.17;;;;;;;-0.28;70.61;100690.78;5052426;28;20064;-66
2021/01/11 10:59:19;;;;;;;37.33;16.60;;;;;;;-0.35;70.62;100675.97;5034443;28;20406;-65
2021/01/11 11:01:44;;;;;;;35.67;17.23;;;;;;;-0.11;70.12;100682.72;5036219;28;20124;-66
2021/01/11 11:04:11;;;;;;;38.15;17.70;;;;;;;-0.06;70.50;100691.44;5055738;28;20025;-66
2021/01/11 11:06:36;;;;;;;39.40;18.08;;;;;;;0.05;70.58;100692.19;5056066;28;20040;-66
2021/01/11 11:09:02;;;;;;;37.90;18.10;;;;;;;0.14;70.44;100686.84;5038235;28;20036;-67
2021/01/11 11:11:28;;;;;;;39.17;18.27;;;;;;;0.15;70.26;100677.22;5055517;28;20036;-67
2021/01/11 11:13:53;;;;;;;40.58;17.75;;;;;;;0.25;69.33;100684.09;5055779;28;20398;-67
2021/01/11 11:16:18;;;;;;;42.72;17.58;;;;;;;-0.13;69.80;100629.44;5038033;28;20033;-66